sensor_id;sensor_type;location;lat;lon;timestamp;temperature;humidity
8067;DHT22;4076;48.076;9.118;2024-03-08T17:29:06;3.90;99.90
8067;DHT22;4076;48.076;9.118;2024-03-08T17:31:33;3.90;99.90
8067;DHT22;4076;48.076;9.118;2024-03-08T17:33:59;3.90;99.90
8067;DHT22;4076;48.076;9.118;2024-03-08T17:36:26;3.90;99.90
8067;DHT22;4076;48.076;9.118;2024-03-08T17:38:51;3.80;99.90
8067;DHT22;4076;48.076;9.118;2024-03-08T17:41:18;3.80;99.90
8067;DHT22;4076;48.076;9.118;2024-03-08T17:43:47;3.70;99.90
8067;DHT22;4076;48.076;9.118;2024-03-08T17:46:13;3.70;99.90
8067;DHT22;4076;48.076;9.118;2024-03-08T17:48:38;3.60;99.90
8067;DHT22;4076;48.076;9.118;2024-03-08T17:51:05;3.50;99.90
8067;DHT22;4076;48.076;9.118;2024-03-08T17:53:30;3.40;99.90
8067;DHT22;4076;48.076;9.118;2024-03-08T17:55:57;3.30;99.90
8067;DHT22;4076;48.076;9.118;2024-03-08T17:58:22;3.30;99.90
8067;DHT22;4076;48.076;9.118;2024-03-08T18:00:48;3.20;99.90
8067;DHT22;4076;48.076;9.118;2024-03-08T18:03:16;3.10;99.90
8067;DHT22;4076;48.076;9.118;2024-03-08T18:05:44;3.00;99.90
8067;DHT22;4076;48.076;9.118;2024-03-08T18:08:10;2.90;99.90
8067;DHT22;4076;48.076;9.118;2024-03-08T18:10:36;2.90;99.90
8067;DHT22;4076;48.076;9.118;2024-03-08T18:13:04;2.80;99.90
8067;DHT22;4076;48.076;9.118;2024-03-08T18:15:38;2.80;99.90
8067;DHT22;4076;48.076;9.118;2024-03-08T18:18:05;2.70;99.90
8067;DHT22;4076;48.076;9.118;2024-03-08T18:20:34;2.70;99.90
8067;DHT22;4076;48.076;9.118;2024-03-08T18:23:09;2.70;99.90
8067;DHT22;4076;48.076;9.118;2024-03-08T18:25:35;2.60;99.90
8067;DHT22;4076;48.076;9.118;2024-03-08T18:28:03;2.50;99.90
8067;DHT22;4076;48.076;9.118;2024-03-08T18:30:37;2.40;99.90
8067;DHT22;4076;48.076;9.118;2024-03-08T18:33:04;2.40;99.90
8067;DHT22;4076;48.076;9.118;2024-03-08T18:35:30;2.30;99.90
8067;DHT22;4076;48.076;9.118;2024-03-08T18:37:55;2.30;99.90
8067;DHT22;4076;48.076;9.118;2024-03-08T18:40:22;2.30;99.90
8067;DHT22;4076;48.076;9.118;2024-03-08T18:42:52;2.20;99.90
8067;DHT22;4076;48.076;9.118;2024-03-08T18:45:20;2.20;99.90
8067;DHT22;4076;48.076;9.118;2024-03-08T18:47:48;2.10;99.90
8067;DHT22;4076;48.076;9.118;2024-03-08T18:50:18;2.10;99.90
8067;DHT22;4076;48.076;9.118;2024-03-08T18:52:45;2.10;99.90
8067;DHT22;4076;48.076;9.118;2024-03-08T18:55:14;2.00;99.90
8067;DHT22;4076;48.076;9.118;2024-03-08T18:57:42;1.90;99.90
8067;DHT22;4076;48.076;9.118;2024-03-08T19:00:17;1.80;99.90
8067;DHT22;4076;48.076;9.118;2024-03-08T19:02:54;1.80;99.90
8067;DHT22;4076;48.076;9.118;2024-03-08T19:05:20;1.70;99.90
8067;DHT22;4076;48.076;9.118;2024-03-08T19:07:54;1.70;99.90
8067;DHT22;4076;48.076;9.118;2024-03-08T19:10:24;1.60;99.90
8067;DHT22;4076;48.076;9.118;2024-03-08T19:12:50;1.70;99.90
8067;DHT22;4076;48.076;9.118;2024-03-08T19:15:17;1.60;99.90
8067;DHT22;4076;48.076;9.118;2024-03-08T19:17:44;1.60;99.90
8067;DHT22;4076;48.076;9.118;2024-03-08T19:20:10;1.50;99.90
8067;DHT22;4076;48.076;9.118;2024-03-08T19:22:45;1.50;99.90
8067;DHT22;4076;48.076;9.118;2024-03-08T19:25:12;1.50;99.90
8067;DHT22;4076;48.076;9.118;2024-03-08T19:27:39;1.50;99.90
8067;DHT22;4076;48.076;9.118;2024-03-08T19:30:06;1.40;99.90
8067;DHT22;4076;48.076;9.118;2024-03-08T19:32:32;1.40;99.90
8067;DHT22;4076;48.076;9.118;2024-03-08T19:34:59;1.40;99.90
8067;DHT22;4076;48.076;9.118;2024-03-08T19:37:26;1.40;99.90
8067;DHT22;4076;48.076;9.118;2024-03-08T19:39:51;1.30;99.90
8067;DHT22;4076;48.076;9.118;2024-03-08T19:42:17;1.30;99.90
8067;DHT22;4076;48.076;9.118;2024-03-08T19:44:44;1.30;99.90
8067;DHT22;4076;48.076;9.118;2024-03-08T19:47:13;1.30;99.90
8067;DHT22;4076;48.076;9.118;2024-03-08T19:49:41;1.30;99.90
8067;DHT22;4076;48.076;9.118;2024-03-08T19:52:07;1.30;99.90
8067;DHT22;4076;48.076;9.118;2024-03-08T19:54:32;1.30;99.90
8067;DHT22;4076;48.076;9.118;2024-03-08T19:56:59;1.30;99.90
8067;DHT22;4076;48.076;9.118;2024-03-08T19:59:35;1.30;99.90
8067;DHT22;4076;48.076;9.118;2024-03-08T20:02:08;1.30;99.90
8067;DHT22;4076;48.076;9.118;2024-03-08T20:04:33;1.20;99.90
8067;DHT22;4076;48.076;9.118;2024-03-08T20:06:59;1.20;99.90
8067;DHT22;4076;48.076;9.118;2024-03-08T20:09:25;1.20;99.90
8067;DHT22;4076;48.076;9.118;2024-03-08T20:11:50;1.20;99.90
8067;DHT22;4076;48.076;9.118;2024-03-08T20:14:16;1.10;99.90
8067;DHT22;4076;48.076;9.118;2024-03-08T20:16:42;1.10;99.90
8067;DHT22;4076;48.076;9.118;2024-03-08T20:19:08;1.10;99.90
8067;DHT22;4076;48.076;9.118;2024-03-08T20:21:35;1.10;99.90
8067;DHT22;4076;48.076;9.118;2024-03-08T20:24:00;1.10;99.90
8067;DHT22;4076;48.076;9.118;2024-03-08T20:26:26;1.10;99.90
8067;DHT22;4076;48.076;9.118;2024-03-08T20:28:52;1.10;99.90
8067;DHT22;4076;48.076;9.118;2024-03-08T20:31:17;1.10;99.90
8067;DHT22;4076;48.076;9.118;2024-03-08T20:33:43;1.10;99.90
8067;DHT22;4076;48.076;9.118;2024-03-08T20:36:11;1.20;99.90
8067;DHT22;4076;48.076;9.118;2024-03-08T20:38:37;1.20;99.90
8067;DHT22;4076;48.076;9.118;2024-03-08T20:41:03;1.30;99.90
8067;DHT22;4076;48.076;9.118;2024-03-08T20:43:37;1.30;99.90
8067;DHT22;4076;48.076;9.118;2024-03-08T20:46:03;1.40;99.90
8067;DHT22;4076;48.076;9.118;2024-03-08T20:48:32;1.50;99.90
8067;DHT22;4076;48.076;9.118;2024-03-08T20:51:00;1.50;99.90
8067;DHT22;4076;48.076;9.118;2024-03-08T20:53:26;1.50;99.90
8067;DHT22;4076;48.076;9.118;2024-03-08T20:55:53;1.60;99.90
8067;DHT22;4076;48.076;9.118;2024-03-08T20:58:19;1.70;99.90
8067;DHT22;4076;48.076;9.118;2024-03-08T21:00:47;1.70;99.90
8067;DHT22;4076;48.076;9.118;2024-03-08T21:03:22;1.70;99.90
8067;DHT22;4076;48.076;9.118;2024-03-08T21:05:49;1.70;99.90
8067;DHT22;4076;48.076;9.118;2024-03-08T21:08:20;1.80;99.90
8067;DHT22;4076;48.076;9.118;2024-03-08T21:10:55;1.80;99.90
8067;DHT22;4076;48.076;9.118;2024-03-08T21:13:21;1.80;99.90
8067;DHT22;4076;48.076;9.118;2024-03-08T21:15:49;1.80;99.90
8067;DHT22;4076;48.076;9.118;2024-03-08T21:18:15;1.80;99.90
8067;DHT22;4076;48.076;9.118;2024-03-08T21:20:40;1.80;99.90
8067;DHT22;4076;48.076;9.118;2024-03-08T21:23:09;1.80;99.90
8067;DHT22;4076;48.076;9.118;2024-03-08T21:25:37;1.80;99.90
8067;DHT22;4076;48.076;9.118;2024-03-08T21:28:05;1.80;99.90
8067;DHT22;4076;48.076;9.118;2024-03-08T21:30:32;1.80;99.90
8067;DHT22;4076;48.076;9.118;2024-03-08T21:32:58;1.80;99.90
8067;DHT22;4076;48.076;9.118;2024-03-08T21:35:26;1.80;99.90
8067;DHT22;4076;48.076;9.118;2024-03-08T21:37:52;1.80;99.90
8067;DHT22;4076;48.076;9.118;2024-03-08T21:40:19;1.80;99.90
8067;DHT22;4076;48.076;9.118;2024-03-08T21:42:49;1.80;99.90
8067;DHT22;4076;48.076;9.118;2024-03-08T21:45:14;1.80;99.90
8067;DHT22;4076;48.076;9.118;2024-03-08T21:47:43;1.80;99.90
8067;DHT22;4076;48.076;9.118;2024-03-08T21:50:10;1.80;99.90
8067;DHT22;4076;48.076;9.118;2024-03-08T21:52:43;1.80;99.90
8067;DHT22;4076;48.076;9.118;2024-03-08T21:55:10;1.90;99.90
8067;DHT22;4076;48.076;9.118;2024-03-08T21:57:37;1.90;99.90
8067;DHT22;4076;48.076;9.118;2024-03-08T22:00:03;1.90;99.90
8067;DHT22;4076;48.076;9.118;2024-03-08T22:02:37;2.00;99.90
8067;DHT22;4076;48.076;9.118;2024-03-08T22:05:02;2.00;99.90
8067;DHT22;4076;48.076;9.118;2024-03-08T22:07:28;2.00;99.90
8067;DHT22;4076;48.076;9.118;2024-03-08T22:09:53;2.10;99.90
8067;DHT22;4076;48.076;9.118;2024-03-08T22:12:19;2.00;99.90
8067;DHT22;4076;48.076;9.118;2024-03-08T22:14:45;2.00;99.90
8067;DHT22;4076;48.076;9.118;2024-03-08T22:17:11;2.10;99.90
8067;DHT22;4076;48.076;9.118;2024-03-08T22:19:40;2.10;99.90
8067;DHT22;4076;48.076;9.118;2024-03-08T22:22:06;2.10;99.90
8067;DHT22;4076;48.076;9.118;2024-03-08T22:24:31;2.10;99.90
8067;DHT22;4076;48.076;9.118;2024-03-08T22:26:57;2.10;99.90
8067;DHT22;4076;48.076;9.118;2024-03-08T22:29:22;2.10;99.90
8067;DHT22;4076;48.076;9.118;2024-03-08T22:31:48;2.10;99.90
8067;DHT22;4076;48.076;9.118;2024-03-08T22:34:14;2.10;99.90
8067;DHT22;4076;48.076;9.118;2024-03-08T22:36:41;2.10;99.90
8067;DHT22;4076;48.076;9.118;2024-03-08T22:39:06;2.10;99.90
8067;DHT22;4076;48.076;9.118;2024-03-08T22:41:36;2.20;99.90
8067;DHT22;4076;48.076;9.118;2024-03-08T22:44:02;2.20;99.90
8067;DHT22;4076;48.076;9.118;2024-03-08T22:46:29;2.20;99.90
8067;DHT22;4076;48.076;9.118;2024-03-08T22:48:57;2.20;99.90
8067;DHT22;4076;48.076;9.118;2024-03-08T22:51:22;2.20;99.90
8067;DHT22;4076;48.076;9.118;2024-03-08T22:53:51;2.20;99.90
8067;DHT22;4076;48.076;9.118;2024-03-08T22:56:16;2.20;99.90
8067;DHT22;4076;48.076;9.118;2024-03-08T22:58:42;2.20;99.90
8067;DHT22;4076;48.076;9.118;2024-03-08T23:01:09;2.20;99.90
8067;DHT22;4076;48.076;9.118;2024-03-08T23:03:40;2.20;99.90
8067;DHT22;4076;48.076;9.118;2024-03-08T23:06:08;2.20;99.90
8067;DHT22;4076;48.076;9.118;2024-03-08T23:08:38;2.20;99.90
8067;DHT22;4076;48.076;9.118;2024-03-08T23:11:06;2.20;99.90
8067;DHT22;4076;48.076;9.118;2024-03-08T23:13:35;2.20;99.90
8067;DHT22;4076;48.076;9.118;2024-03-08T23:16:02;2.20;99.90
8067;DHT22;4076;48.076;9.118;2024-03-08T23:18:28;2.20;99.90
8067;DHT22;4076;48.076;9.118;2024-03-08T23:20:53;2.20;99.90
8067;DHT22;4076;48.076;9.118;2024-03-08T23:23:21;2.30;99.90
8067;DHT22;4076;48.076;9.118;2024-03-08T23:25:48;2.30;99.90
8067;DHT22;4076;48.076;9.118;2024-03-08T23:28:13;2.30;99.90
8067;DHT22;4076;48.076;9.118;2024-03-08T23:30:39;2.30;99.90
8067;DHT22;4076;48.076;9.118;2024-03-08T23:33:11;2.30;99.90
8067;DHT22;4076;48.076;9.118;2024-03-08T23:35:38;2.30;99.90
8067;DHT22;4076;48.076;9.118;2024-03-08T23:38:05;2.30;99.90
8067;DHT22;4076;48.076;9.118;2024-03-08T23:40:33;2.30;99.90
8067;DHT22;4076;48.076;9.118;2024-03-08T23:42:59;2.30;99.90
8067;DHT22;4076;48.076;9.118;2024-03-08T23:45:25;2.30;99.90
8067;DHT22;4076;48.076;9.118;2024-03-08T23:47:54;2.30;99.90
8067;DHT22;4076;48.076;9.118;2024-03-08T23:50:22;2.30;99.90
8067;DHT22;4076;48.076;9.118;2024-03-08T23:52:49;2.30;99.90
8067;DHT22;4076;48.076;9.118;2024-03-08T23:55:19;2.30;99.90
8067;DHT22;4076;48.076;9.118;2024-03-08T23:57:52;2.30;99.90
